createdAt,value
2022-08-30T00:01:34.018Z,22.20
2022-08-30T00:04:02.076Z,22.20
2022-08-30T00:06:30.461Z,22.10
2022-08-30T00:08:58.199Z,21.70
2022-08-30T00:11:28.247Z,22.10
2022-08-30T00:13:56.776Z,22.40
2022-08-30T00:16:26.554Z,22.00
2022-08-30T00:18:54.850Z,22.10
2022-08-30T00:21:23.204Z,21.90
2022-08-30T00:23:51.316Z,22.20
2022-08-30T00:26:18.829Z,22.20
2022-08-30T00:28:46.193Z,22.10
2022-08-30T00:31:15.421Z,22.00
2022-08-30T00:33:43.704Z,21.80
2022-08-30T00:36:11.158Z,21.80
2022-08-30T00:38:38.534Z,21.70
2022-08-30T00:41:05.992Z,21.70
2022-08-30T00:43:36.826Z,21.70
2022-08-30T00:46:08.259Z,21.60
2022-08-30T00:48:44.779Z,21.60
2022-08-30T00:51:14.199Z,21.60
2022-08-30T00:53:46.470Z,22.20
2022-08-30T00:56:14.441Z,21.90
2022-08-30T00:58:46.762Z,22.20
2022-08-30T01:01:14.938Z,22.20
2022-08-30T01:03:43.848Z,21.60
2022-08-30T01:06:12.207Z,21.50
2022-08-30T01:08:39.654Z,21.50
2022-08-30T01:11:07.946Z,22.10
2022-08-30T01:13:35.791Z,21.40
2022-08-30T01:16:06.685Z,21.40
2022-08-30T01:18:39.676Z,21.30
2022-08-30T01:29:24.359Z,21.30
2022-08-30T01:31:52.212Z,21.30
2022-08-30T01:34:25.639Z,21.20
2022-08-30T01:36:55.419Z,21.20
2022-08-30T01:39:23.872Z,21.20
2022-08-30T01:41:51.363Z,21.20
2022-08-30T01:44:20.396Z,21.10
2022-08-30T01:51:51.353Z,20.60
2022-08-30T01:54:36.845Z,21.00
2022-08-30T01:57:48.887Z,20.90
2022-08-30T02:00:17.147Z,20.90
2022-08-30T02:02:44.898Z,20.90
2022-08-30T02:05:15.994Z,21.30
2022-08-30T02:07:43.966Z,20.80
2022-08-30T02:10:12.501Z,20.80
2022-08-30T02:12:40.376Z,20.80
2022-08-30T02:15:10.054Z,21.20
2022-08-30T02:17:38.161Z,20.80
2022-08-30T02:20:07.061Z,20.70
2022-08-30T02:22:35.197Z,20.70
2022-08-30T02:25:04.836Z,20.40
2022-08-30T02:27:33.564Z,20.60
2022-08-30T02:30:01.160Z,20.60
2022-08-30T02:32:28.833Z,20.60
2022-08-30T02:34:56.596Z,20.10
2022-08-30T02:37:26.707Z,20.60
2022-08-30T02:40:00.015Z,20.60
2022-08-30T02:42:27.927Z,20.90
2022-08-30T02:44:56.842Z,20.00
2022-08-30T02:47:25.108Z,20.80
2022-08-30T02:49:52.827Z,20.70
2022-08-30T02:52:27.745Z,20.40
2022-08-30T03:00:01.968Z,20.40
2022-08-30T03:14:47.910Z,20.00
2022-08-30T04:18:27.646Z,19.40
2022-08-30T04:20:56.457Z,19.50
2022-08-30T04:26:35.290Z,19.30
2022-08-30T04:29:02.723Z,19.30
2022-08-30T04:43:16.261Z,19.10
2022-08-30T04:48:47.565Z,19.00
2022-08-30T04:51:17.238Z,19.50
2022-08-30T04:53:45.500Z,19.30
2022-08-30T04:56:18.158Z,19.30
2022-08-30T04:58:47.332Z,19.00
2022-08-30T05:01:44.499Z,19.50
2022-08-30T05:04:15.119Z,19.00
2022-08-30T05:06:43.325Z,19.50
2022-08-30T05:09:11.168Z,18.80
2022-08-30T05:11:38.826Z,19.00
2022-08-30T05:14:06.392Z,19.10
2022-08-30T05:16:33.961Z,19.40
2022-08-30T05:19:01.556Z,18.90
2022-08-30T05:21:29.274Z,18.90
2022-08-30T05:23:59.757Z,18.90
2022-08-30T05:26:33.077Z,19.00
2022-08-30T05:29:00.697Z,19.00
2022-08-30T05:31:32.944Z,19.00
2022-08-30T05:34:01.266Z,19.50
2022-08-30T05:36:30.588Z,19.20
2022-08-30T05:38:58.117Z,19.10
2022-08-30T05:41:27.181Z,19.10
2022-08-30T05:43:59.060Z,19.40
2022-08-30T05:46:29.383Z,19.60
2022-08-30T05:48:57.593Z,19.80
2022-08-30T05:51:28.628Z,19.40
2022-08-30T05:53:58.117Z,19.60
2022-08-30T05:56:31.137Z,20.20
2022-08-30T05:58:58.816Z,19.90
2022-08-30T06:01:33.100Z,20.20
2022-08-30T06:04:04.426Z,20.60
2022-08-30T06:06:34.405Z,20.40
2022-08-30T06:09:03.555Z,20.60
2022-08-30T06:11:34.715Z,20.70
2022-08-30T06:14:02.493Z,20.40
2022-08-30T06:16:32.108Z,20.90
2022-08-30T06:19:00.297Z,21.10
2022-08-30T06:21:30.375Z,21.20
2022-08-30T06:23:58.530Z,21.30
2022-08-30T06:26:27.127Z,21.50
2022-08-30T06:28:54.934Z,21.70
2022-08-30T06:31:23.989Z,21.80
2022-08-30T06:33:52.535Z,22.10
2022-08-30T06:36:23.322Z,22.50
2022-08-30T06:38:53.811Z,22.30
2022-08-30T06:41:28.145Z,22.80
2022-08-30T06:43:56.969Z,23.00
2022-08-30T06:46:27.015Z,23.40
2022-08-30T06:48:56.329Z,23.60
2022-08-30T06:51:30.123Z,23.90
2022-08-30T06:53:58.737Z,24.20
2022-08-30T06:56:27.739Z,24.40
2022-08-30T06:58:55.565Z,24.70
2022-08-30T07:01:26.270Z,25.00
2022-08-30T07:03:56.926Z,25.30
2022-08-30T07:06:27.933Z,25.90
2022-08-30T07:09:01.954Z,25.70
2022-08-30T07:11:42.362Z,25.50
2022-08-30T07:14:12.253Z,26.20
2022-08-30T07:16:39.819Z,26.40
2022-08-30T07:19:08.299Z,27.00
2022-08-30T07:21:48.861Z,26.90
2022-08-30T07:24:17.443Z,27.10
2022-08-30T07:26:52.282Z,27.30
2022-08-30T07:29:25.794Z,27.50
2022-08-30T07:31:53.331Z,27.80
2022-08-30T07:34:22.473Z,28.60
2022-08-30T07:36:53.407Z,28.50
2022-08-30T07:39:22.036Z,28.90
2022-08-30T07:41:50.725Z,29.20
2022-08-30T07:44:18.322Z,29.50
2022-08-30T07:46:46.062Z,29.70
2022-08-30T07:49:13.515Z,29.80
2022-08-30T07:51:41.218Z,30.00
2022-08-30T07:54:08.818Z,30.20
2022-08-30T07:56:36.563Z,30.40
2022-08-30T07:59:07.331Z,30.30
2022-08-30T08:01:35.491Z,30.30
2022-08-30T08:04:04.663Z,30.40
2022-08-30T08:06:38.876Z,30.90
2022-08-30T08:09:07.318Z,30.60
2022-08-30T08:11:35.670Z,30.90
2022-08-30T08:14:07.181Z,31.00
2022-08-30T08:16:39.454Z,31.30
2022-08-30T08:19:24.382Z,31.50
2022-08-30T08:22:21.952Z,31.80
2022-08-30T08:24:55.602Z,32.10
2022-08-30T08:27:26.053Z,32.40
2022-08-30T08:29:58.667Z,32.50
2022-08-30T08:32:35.937Z,32.70
2022-08-30T08:35:12.111Z,32.90
2022-08-30T08:37:43.406Z,33.20
2022-08-30T08:40:18.559Z,33.30
2022-08-30T08:42:52.058Z,33.40
2022-08-30T08:45:35.695Z,33.50
2022-08-30T08:48:24.706Z,33.50
2022-08-30T08:51:16.229Z,33.40
2022-08-30T08:53:50.318Z,33.40
2022-08-30T08:56:19.369Z,33.40
2022-08-30T08:58:53.315Z,33.40
2022-08-30T09:01:30.670Z,33.40
2022-08-30T09:04:01.769Z,33.40
2022-08-30T09:06:53.589Z,33.40
2022-08-30T09:09:27.428Z,33.60
2022-08-30T09:11:55.074Z,33.70
2022-08-30T09:14:30.059Z,33.80
2022-08-30T09:17:03.015Z,34.00
2022-08-30T09:19:35.751Z,34.10
2022-08-30T09:22:26.197Z,34.10
2022-08-30T09:25:13.785Z,34.20
2022-08-30T09:27:43.663Z,34.30
2022-08-30T09:30:27.395Z,34.60
2022-08-30T09:32:57.563Z,34.50
2022-08-30T09:35:37.120Z,34.40
2022-08-30T09:38:13.064Z,34.10
2022-08-30T09:40:44.857Z,34.00
2022-08-30T09:43:25.763Z,34.40
2022-08-30T09:46:02.297Z,33.90
2022-08-30T09:48:32.817Z,33.80
2022-08-30T09:51:15.384Z,33.60
2022-08-30T09:54:17.081Z,33.40
2022-08-30T09:57:11.631Z,33.20
2022-08-30T10:00:23.442Z,33.00
2022-08-30T10:03:36.347Z,32.80
2022-08-30T10:06:33.765Z,32.50
2022-08-30T10:09:37.793Z,32.30
2022-08-30T10:12:19.273Z,32.00
2022-08-30T10:15:18.550Z,31.60
2022-08-30T10:18:08.009Z,31.40
2022-08-30T10:20:51.527Z,31.20
2022-08-30T10:23:30.089Z,31.20
2022-08-30T10:26:12.985Z,31.10
2022-08-30T10:28:50.822Z,31.00
2022-08-30T10:31:41.387Z,31.00
2022-08-30T10:34:18.175Z,31.00
2022-08-30T10:37:08.583Z,31.00
2022-08-30T10:40:00.555Z,30.90
2022-08-30T10:42:37.994Z,30.90
2022-08-30T10:45:15.874Z,30.90
2022-08-30T10:47:55.186Z,30.90
2022-08-30T10:50:31.845Z,30.90
2022-08-30T10:53:15.412Z,30.90
2022-08-30T10:55:55.007Z,31.00
2022-08-30T10:58:23.676Z,31.00
2022-08-30T11:01:03.727Z,30.90
2022-08-30T11:04:01.453Z,30.90
2022-08-30T11:06:52.639Z,30.90
2022-08-30T11:09:29.819Z,30.90
2022-08-30T11:12:19.781Z,31.00
2022-08-30T11:14:47.518Z,30.90
2022-08-30T11:17:30.407Z,30.90
2022-08-30T11:20:00.758Z,31.20
2022-08-30T11:22:28.166Z,31.00
2022-08-30T11:25:11.441Z,30.90
2022-08-30T11:27:59.589Z,30.90
2022-08-30T11:30:27.395Z,31.10
2022-08-30T11:33:11.707Z,31.00
2022-08-30T11:35:48.474Z,30.90
2022-08-30T11:38:27.356Z,30.90
2022-08-30T11:40:54.663Z,30.90
2022-08-30T11:43:34.849Z,30.90
2022-08-30T11:46:26.355Z,31.00
2022-08-30T11:49:13.280Z,31.00
2022-08-30T11:51:58.078Z,31.00
2022-08-30T11:54:56.841Z,31.00
2022-08-30T11:57:35.349Z,31.00
2022-08-30T12:00:27.073Z,30.90
2022-08-30T12:03:00.622Z,30.90
2022-08-30T12:05:39.462Z,30.90
2022-08-30T12:08:33.978Z,30.90
2022-08-30T12:11:27.026Z,31.00
2022-08-30T12:13:55.998Z,31.00
2022-08-30T12:17:03.359Z,31.50
2022-08-30T12:19:32.792Z,31.10
2022-08-30T12:22:13.419Z,31.10
2022-08-30T12:24:57.515Z,31.10
2022-08-30T12:27:39.080Z,31.10
2022-08-30T12:30:13.793Z,31.20
2022-08-30T12:32:47.376Z,31.20
2022-08-30T12:35:23.216Z,31.20
2022-08-30T12:38:18.175Z,31.20
2022-08-30T12:40:51.807Z,31.20
2022-08-30T12:43:38.833Z,31.20
2022-08-30T12:46:15.140Z,31.20
2022-08-30T12:48:44.511Z,31.20
2022-08-30T12:51:28.472Z,31.20
2022-08-30T12:54:05.627Z,31.80
2022-08-30T12:57:19.652Z,31.30
2022-08-30T13:00:01.642Z,31.20
2022-08-30T13:03:24.220Z,31.30
2022-08-30T13:05:53.148Z,31.40
2022-08-30T13:08:42.594Z,31.40
2022-08-30T13:11:24.854Z,31.40
2022-08-30T13:14:18.322Z,31.40
2022-08-30T13:16:47.042Z,31.50
2022-08-30T13:19:22.829Z,31.50
2022-08-30T13:22:00.975Z,31.40
2022-08-30T13:24:28.706Z,31.40
2022-08-30T13:27:01.655Z,31.50
2022-08-30T13:29:29.588Z,31.30
2022-08-30T13:31:57.050Z,31.30
2022-08-30T13:34:24.704Z,31.40
2022-08-30T13:36:56.189Z,31.50
2022-08-30T13:39:24.909Z,31.50
2022-08-30T13:41:52.922Z,31.50
2022-08-30T13:44:20.343Z,31.60
2022-08-30T13:46:54.390Z,31.60
2022-08-30T13:52:23.028Z,31.90
2022-08-30T13:54:52.580Z,32.30
2022-08-30T14:00:21.631Z,31.80
2022-08-30T14:02:54.714Z,31.80
2022-08-30T14:06:05.147Z,31.80
2022-08-30T14:08:53.501Z,31.80
2022-08-30T14:11:25.462Z,31.90
2022-08-30T14:16:44.896Z,31.80
2022-08-30T14:19:14.685Z,31.80
2022-08-30T14:21:42.322Z,31.80
2022-08-30T14:24:10.612Z,31.80
2022-08-30T14:26:42.528Z,31.80
2022-08-30T14:29:12.277Z,31.80
2022-08-30T14:31:40.674Z,31.70
2022-08-30T14:34:10.043Z,31.70
2022-08-30T14:36:40.430Z,31.70
2022-08-30T14:39:11.822Z,31.70
2022-08-30T14:41:45.733Z,31.80
2022-08-30T14:44:15.060Z,31.70
2022-08-30T14:46:44.011Z,31.80
2022-08-30T14:49:12.780Z,31.80
2022-08-30T14:51:41.249Z,31.70
2022-08-30T14:54:10.081Z,31.70
2022-08-30T14:56:39.611Z,31.70
2022-08-30T14:59:08.043Z,31.80
2022-08-30T15:01:37.847Z,31.80
2022-08-30T15:04:11.556Z,31.80
2022-08-30T15:06:40.909Z,31.80
2022-08-30T15:09:28.712Z,31.80
2022-08-30T15:19:52.112Z,32.10
2022-08-30T15:27:06.200Z,31.90
2022-08-30T15:29:33.756Z,31.90
2022-08-30T15:32:03.624Z,31.80
2022-08-30T15:34:35.932Z,31.80
2022-08-30T15:37:33.777Z,31.80
2022-08-30T15:40:14.867Z,31.50
2022-08-30T15:42:47.258Z,31.90
2022-08-30T15:45:15.290Z,31.90
2022-08-30T15:47:53.909Z,31.90
2022-08-30T15:50:56.525Z,31.90
2022-08-30T15:54:15.795Z,31.90
2022-08-30T15:56:54.438Z,31.90
2022-08-30T15:59:59.145Z,31.80
2022-08-30T16:02:45.354Z,31.80
2022-08-30T16:05:17.927Z,31.80
2022-08-30T16:07:52.437Z,31.80
2022-08-30T16:10:20.428Z,31.80
2022-08-30T16:12:50.695Z,31.70
2022-08-30T16:15:19.560Z,31.70
2022-08-30T16:17:48.649Z,31.60
2022-08-30T16:20:16.980Z,31.60
2022-08-30T16:22:46.120Z,31.50
2022-08-30T16:25:40.684Z,31.60
2022-08-30T16:28:09.733Z,31.50
2022-08-30T16:30:37.261Z,31.10
2022-08-30T16:33:18.925Z,31.50
2022-08-30T16:35:53.156Z,31.60
2022-08-30T16:38:26.562Z,31.50
2022-08-30T16:40:54.782Z,31.50
2022-08-30T16:43:24.347Z,31.50
2022-08-30T16:45:52.340Z,31.50
2022-08-30T16:48:21.575Z,31.50
2022-08-30T16:50:55.681Z,31.60
2022-08-30T16:54:07.560Z,31.60
2022-08-30T16:56:45.843Z,31.50
2022-08-30T16:59:17.727Z,31.50
2022-08-30T17:01:46.371Z,31.40
2022-08-30T17:04:19.276Z,31.40
2022-08-30T17:06:50.054Z,31.40
2022-08-30T17:09:19.639Z,31.40
2022-08-30T17:11:48.181Z,31.40
2022-08-30T17:14:20.108Z,31.40
2022-08-30T17:16:51.102Z,31.90
2022-08-30T17:19:18.485Z,31.90
2022-08-30T17:21:54.721Z,31.50
2022-08-30T17:24:22.130Z,31.30
2022-08-30T17:26:50.673Z,31.30
2022-08-30T17:29:18.399Z,31.20
2022-08-30T17:31:51.300Z,31.20
2022-08-30T17:34:26.619Z,30.70
2022-08-30T17:36:55.391Z,31.10
2022-08-30T17:39:23.688Z,31.10
2022-08-30T17:41:51.828Z,31.10
2022-08-30T17:44:25.845Z,31.00
2022-08-30T17:46:53.973Z,31.00
2022-08-30T17:49:22.066Z,30.90
2022-08-30T17:51:55.504Z,30.90
2022-08-30T17:54:25.797Z,30.80
2022-08-30T17:56:54.047Z,30.70
2022-08-30T17:59:25.037Z,30.60
2022-08-30T18:01:55.117Z,30.50
2022-08-30T18:04:24.995Z,30.60
2022-08-30T18:06:53.194Z,30.50
2022-08-30T18:09:22.165Z,30.50
2022-08-30T18:11:50.149Z,30.40
2022-08-30T18:14:18.301Z,30.40
2022-08-30T18:16:53.404Z,30.30
2022-08-30T18:19:24.326Z,30.30
2022-08-30T18:21:53.279Z,30.20
2022-08-30T18:24:21.150Z,30.20
2022-08-30T18:26:48.661Z,30.20
2022-08-30T18:29:26.188Z,30.00
2022-08-30T18:31:58.132Z,30.00
2022-08-30T18:34:25.570Z,30.00
2022-08-30T18:36:53.673Z,30.00
2022-08-30T18:39:21.994Z,30.00
2022-08-30T18:41:50.993Z,30.00
2022-08-30T18:44:29.639Z,29.90
2022-08-30T18:47:09.894Z,30.30
2022-08-30T18:49:37.386Z,30.00
2022-08-30T18:52:08.071Z,29.70
2022-08-30T18:54:42.162Z,29.70
2022-08-30T18:57:10.560Z,29.60
2022-08-30T18:59:38.868Z,29.50
2022-08-30T19:02:09.473Z,29.40
2022-08-30T19:04:37.411Z,29.40
2022-08-30T19:07:07.159Z,29.30
2022-08-30T19:09:34.891Z,29.30
2022-08-30T19:12:03.235Z,29.60
2022-08-30T19:14:32.472Z,29.20
2022-08-30T19:17:06.590Z,29.20
2022-08-30T19:19:37.269Z,29.00
2022-08-30T19:22:16.458Z,29.30
2022-08-30T19:24:43.934Z,29.40
2022-08-30T19:27:11.825Z,28.80
2022-08-30T19:29:39.972Z,28.70
2022-08-30T19:32:08.536Z,28.70
2022-08-30T19:34:37.623Z,28.70
2022-08-30T19:37:05.002Z,28.60
2022-08-30T19:39:32.336Z,29.10
2022-08-30T19:42:00.079Z,28.50
2022-08-30T19:44:27.813Z,28.80
2022-08-30T19:46:55.442Z,28.40
2022-08-30T19:49:23.561Z,29.00
2022-08-30T19:51:51.068Z,28.40
2022-08-30T19:54:19.776Z,28.60
2022-08-30T19:56:48.104Z,28.30
2022-08-30T19:59:17.973Z,28.20
2022-08-30T20:01:46.080Z,28.20
2022-08-30T20:04:14.380Z,28.10
2022-08-30T20:06:42.454Z,28.10
2022-08-30T20:09:11.298Z,28.30
2022-08-30T20:11:42.070Z,27.90
2022-08-30T20:14:10.650Z,27.80
2022-08-30T20:16:41.415Z,27.80
2022-08-30T20:19:11.678Z,28.20
2022-08-30T20:21:39.278Z,27.70
2022-08-30T20:24:09.881Z,27.70
2022-08-30T20:26:38.970Z,27.60
2022-08-30T20:29:08.265Z,27.70
2022-08-30T20:31:36.206Z,28.00
2022-08-30T20:34:04.181Z,27.50
2022-08-30T20:36:33.538Z,27.40
2022-08-30T20:39:02.117Z,27.40
2022-08-30T20:41:30.937Z,27.30
2022-08-30T20:43:59.671Z,27.30
2022-08-30T20:46:32.020Z,27.80
2022-08-30T20:49:02.945Z,27.10
2022-08-30T20:51:30.402Z,27.30
2022-08-30T20:53:58.432Z,27.00
2022-08-30T20:56:27.707Z,26.90
2022-08-30T20:58:55.585Z,26.90
2022-08-30T21:01:23.694Z,26.70
2022-08-30T21:03:51.144Z,26.80
2022-08-30T21:06:18.619Z,26.70
2022-08-30T21:08:46.135Z,26.70
2022-08-30T21:11:13.813Z,26.70
2022-08-30T21:13:41.635Z,26.90
2022-08-30T21:16:09.420Z,26.70
2022-08-30T21:18:39.931Z,26.90
2022-08-30T21:21:21.364Z,26.80
2022-08-30T21:23:50.627Z,27.20
2022-08-30T21:26:19.282Z,26.70
2022-08-30T21:28:48.324Z,27.20
2022-08-30T21:31:19.061Z,26.60
2022-08-30T21:33:48.032Z,26.60
2022-08-30T21:36:35.362Z,26.60
2022-08-30T21:39:04.288Z,26.60
2022-08-30T21:41:32.413Z,26.60
2022-08-30T21:44:02.900Z,26.60
2022-08-30T21:46:32.227Z,27.10
2022-08-30T21:49:01.638Z,26.40
2022-08-30T21:51:32.155Z,26.40
2022-08-30T21:54:00.322Z,26.30
2022-08-30T21:56:27.774Z,26.30
2022-08-30T21:58:55.706Z,26.30
2022-08-30T22:01:26.161Z,26.30
2022-08-30T22:03:56.000Z,26.30
2022-08-30T22:06:25.229Z,26.30
2022-08-30T22:09:01.522Z,26.20
2022-08-30T22:11:31.529Z,26.50
2022-08-30T22:13:59.323Z,26.10
2022-08-30T22:16:28.812Z,26.00
2022-08-30T22:18:56.686Z,25.90
2022-08-30T22:21:26.348Z,25.90
2022-08-30T22:23:53.942Z,25.90
2022-08-30T22:26:23.908Z,25.90
2022-08-30T22:28:53.140Z,25.90
2022-08-30T22:31:22.215Z,25.90
2022-08-30T22:33:51.462Z,25.90
2022-08-30T22:36:38.769Z,25.90
2022-08-30T22:39:08.453Z,25.90
2022-08-30T22:41:38.515Z,25.90
2022-08-30T22:44:06.704Z,26.50
2022-08-30T22:46:35.739Z,25.90
2022-08-30T22:49:05.931Z,25.90
2022-08-30T22:51:34.715Z,26.40
2022-08-30T22:54:04.185Z,25.80
2022-08-30T22:56:34.477Z,25.80
2022-08-30T22:59:02.286Z,26.40
2022-08-30T23:01:32.853Z,25.80
2022-08-30T23:04:01.304Z,26.10
2022-08-30T23:06:29.801Z,26.30
2022-08-30T23:08:57.480Z,26.00
2022-08-30T23:11:25.610Z,25.70
2022-08-30T23:13:53.367Z,26.10
2022-08-30T23:16:21.785Z,25.70
2022-08-30T23:18:49.520Z,25.70
2022-08-30T23:21:20.185Z,26.00
2022-08-30T23:24:06.963Z,25.60
2022-08-30T23:26:53.963Z,25.60
2022-08-30T23:29:39.860Z,25.60
2022-08-30T23:32:25.968Z,25.90
2022-08-30T23:35:11.770Z,26.00
2022-08-30T23:37:58.387Z,25.50
2022-08-30T23:40:44.975Z,25.40
2022-08-30T23:43:31.015Z,25.40
2022-08-30T23:46:19.362Z,25.40
2022-08-30T23:49:07.369Z,25.20
2022-08-30T23:51:54.740Z,25.20
2022-08-30T23:54:40.946Z,25.10
2022-08-30T23:57:26.809Z,25.40
